This is the latest recevied weather packets stored in our database for station/object DL4ABR-6. If no packets are shown the sender has not sent any weather packets the latest 10 day(s).
| Time | Temp. | Humidity | Pressure | Rain* | Wind** | Luminosity | Snow |
|---|---|---|---|---|---|---|---|
| 1777839900 | 19.44° C | 55% | 1006.9 hPa | 0 mm | - | - | - |
| 1777839033 | 19.44° C | 53% | 1007 hPa | 0 mm | - | - | - |
| 1777838150 | 20° C | 51% | 1006.8 hPa | 0 mm | - | - | - |
| 1777835605 | 20.56° C | 45% | 1006.5 hPa | 0 mm | - | - | - |
| 1777834725 | 20.56° C | 46% | 1006 hPa | 0 mm | - | - | - |
| 1777833225 | 20.56° C | 47% | 1006.1 hPa | 0 mm | - | - | - |
| 1777825998 | 23.33° C | 38% | 1005.8 hPa | 0 mm | - | - | - |
| 1777824375 | 23.89° C | 35% | 1005.6 hPa | 0 mm | - | - | - |
| 1777823595 | 25° C | 35% | 1005.7 hPa | 0 mm | - | - | - |
| 1777821975 | 23.89° C | 35% | 1005.5 hPa | 0 mm | - | - | - |
| 1777813934 | 23.89° C | 34% | 1007 hPa | 0 mm | - | - | - |
| 1777811604 | 24.44° C | 34% | 1007.1 hPa | 0 mm | - | - | - |
| 1777809924 | 25° C | 31% | 1007.6 hPa | 0 mm | - | - | - |
| 1777809130 | 25.56° C | 32% | 1007.4 hPa | 0 mm | - | - | - |
| 1777807564 | 25° C | 34% | 1007.7 hPa | 0 mm | - | - | - |
| 1777806730 | 24.44° C | 40% | 1007.7 hPa | 0 mm | - | - | - |
| 1777804304 | 25° C | 41% | 1007.8 hPa | 0 mm | - | - | - |
| 1777803440 | 24.44° C | 41% | 1007.9 hPa | 0 mm | - | - | - |
| 1777802544 | 24.44° C | 41% | 1007.9 hPa | 0 mm | - | - | - |
| 1777800964 | 23.89° C | 44% | 1008 hPa | 0 mm | - | - | - |
| 1777800240 | 23.33° C | 45% | 1008.4 hPa | 0 mm | - | - | - |
| 1777799384 | 22.78° C | 46% | 1008.4 hPa | 0 mm | - | - | - |
| 1777798645 | 23.89° C | 46% | 1008.2 hPa | 0 mm | - | - | - |
| 1777796994 | 23.33° C | 48% | 1008.5 hPa | 0 mm | - | - | - |
| 1777796123 | 22.78° C | 48% | 1008.5 hPa | 0 mm | - | - | - |
* Rain since midnight (hover to see other rain measurements)
** Current wind speed in m/s (hover to see current wind gust speed)